Time;durP1;ratioP1;P1;durP2;ratioP2;P2;SDS_P1;SDS_P2;PMS_P1;PMS_P2;Temp;Humidity;BMP_temperature;BMP_pressure;BME280_temperature;BME280_humidity;BME280_pressure;Samples;Min_cycle;Max_cycle;Signal;HPM_P1;HPM_P2
2023/06/29 00:01:44;;;;;;;9.57;4.47;;;;;;;;;;4992270;28;20030;-62
2023/06/29 00:04:09;;;;;;;9.38;4.60;;;;;;;;;;4991741;28;20030;-62
2023/06/29 00:06:37;;;;;;;9.07;4.55;;;;;;;;;;4991430;28;20035;-62
2023/06/29 00:09:05;;;;;;;8.82;4.63;;;;;;;;;;4991880;28;20059;-63
2023/06/29 00:11:31;;;;;;;8.75;4.40;;;;;;;;;;4992587;28;20050;-62
2023/06/29 00:13:57;;;;;;;8.55;4.50;;;;;;;;;;4991817;28;20169;-62
2023/06/29 00:16:22;;;;;;;11.43;4.45;;;;;;;;;;4992460;28;20051;-62
2023/06/29 00:18:49;;;;;;;8.80;4.30;;;;;;;;;;4991189;28;20551;-61
2023/06/29 00:21:18;;;;;;;7.70;4.65;;;;;;;;;;4991626;28;20038;-62
2023/06/29 00:23:45;;;;;;;12.27;4.82;;;;;;;;;;4992273;28;20503;-62
2023/06/29 00:26:12;;;;;;;9.00;4.60;;;;;;;;;;4991595;28;20065;-62
2023/06/29 00:28:37;;;;;;;9.75;4.93;;;;;;;;;;4992356;28;20042;-63
2023/06/29 00:31:02;;;;;;;8.10;4.80;;;;;;;;;;4991659;28;20033;-61
2023/06/29 00:33:29;;;;;;;9.40;4.35;;;;;;;;;;4992242;28;20463;-62
2023/06/29 00:35:54;;;;;;;10.82;5.03;;;;;;;;;;4991324;28;20030;-62
2023/06/29 00:38:20;;;;;;;9.60;4.80;;;;;;;;;;4992014;28;20481;-62
2023/06/29 00:40:48;;;;;;;11.75;4.88;;;;;;;;;;4992034;28;20026;-61
2023/06/29 00:43:13;;;;;;;9.10;4.80;;;;;;;;;;4991557;28;20050;-63
2023/06/29 00:45:39;;;;;;;10.10;4.60;;;;;;;;;;4993025;28;20133;-62
2023/06/29 00:48:05;;;;;;;8.25;4.95;;;;;;;;;;4995424;28;20037;-63
2023/06/29 00:50:31;;;;;;;9.25;5.00;;;;;;;;;;4995985;28;20033;-62
2023/06/29 00:52:56;;;;;;;8.18;4.50;;;;;;;;;;4995382;28;20129;-63
2023/06/29 00:55:22;;;;;;;8.00;4.80;;;;;;;;;;4996103;28;20165;-62
2023/06/29 00:57:47;;;;;;;7.53;4.60;;;;;;;;;;4995859;28;20038;-62
2023/06/29 01:00:13;;;;;;;7.57;4.60;;;;;;;;;;4995553;28;20082;-63
2023/06/29 01:02:41;;;;;;;9.13;4.82;;;;;;;;;;4996243;28;20467;-62
2023/06/29 01:05:09;;;;;;;9.05;5.00;;;;;;;;;;4995514;28;20059;-62
2023/06/29 01:07:41;;;;;;;10.98;5.15;;;;;;;;;;4996100;28;20352;-62
2023/06/29 01:10:10;;;;;;;8.93;4.80;;;;;;;;;;4995402;28;20037;-62
2023/06/29 01:12:38;;;;;;;8.48;5.35;;;;;;;;;;4996027;28;20117;-61
2023/06/29 01:15:05;;;;;;;11.85;5.63;;;;;;;;;;4993760;28;20048;-62
2023/06/29 01:17:32;;;;;;;10.07;4.97;;;;;;;;;;4995545;28;20034;-62
2023/06/29 01:19:58;;;;;;;9.18;4.70;;;;;;;;;;4994945;28;20040;-63
2023/06/29 01:22:36;;;;;;;9.55;4.97;;;;;;;;;;4995428;28;20517;-62
2023/06/29 01:25:02;;;;;;;9.68;5.03;;;;;;;;;;4994943;28;20062;-61
2023/06/29 01:27:27;;;;;;;9.63;5.10;;;;;;;;;;4995174;28;20072;-61
2023/06/29 01:29:55;;;;;;;8.38;4.75;;;;;;;;;;4995280;28;20456;-61
2023/06/29 01:32:21;;;;;;;11.55;5.63;;;;;;;;;;4994968;28;20474;-62
2023/06/29 01:34:47;;;;;;;9.18;4.93;;;;;;;;;;4995317;28;20042;-62
2023/06/29 01:37:14;;;;;;;8.82;5.10;;;;;;;;;;4994349;28;20036;-62
2023/06/29 01:39:50;;;;;;;9.40;5.03;;;;;;;;;;4994962;28;20471;-62
2023/06/29 01:42:18;;;;;;;12.90;4.97;;;;;;;;;;4993135;28;20309;-62
2023/06/29 01:44:44;;;;;;;9.88;5.10;;;;;;;;;;4995161;28;20460;-62
2023/06/29 01:47:10;;;;;;;10.68;4.75;;;;;;;;;;4994525;28;20031;-62
2023/06/29 01:49:36;;;;;;;9.20;4.75;;;;;;;;;;4995635;28;20069;-62
2023/06/29 01:52:04;;;;;;;8.10;4.60;;;;;;;;;;4993240;28;20481;-62
2023/06/29 01:54:30;;;;;;;9.02;5.00;;;;;;;;;;4995444;28;20121;-62
2023/06/29 01:56:55;;;;;;;10.27;5.13;;;;;;;;;;5012443;28;20116;-62
2023/06/29 01:59:20;;;;;;;9.80;5.40;;;;;;;;;;5013874;28;20470;-62
2023/06/29 02:01:46;;;;;;;7.88;5.18;;;;;;;;;;5014987;28;20352;-62
2023/06/29 02:04:11;;;;;;;9.77;5.68;;;;;;;;;;5012467;28;20045;-62
2023/06/29 02:06:37;;;;;;;11.82;5.30;;;;;;;;;;5014427;28;20129;-62
2023/06/29 02:09:02;;;;;;;10.60;5.32;;;;;;;;;;5013490;28;20037;-63
2023/06/29 02:11:27;;;;;;;7.57;4.90;;;;;;;;;;5014216;28;20152;-62
2023/06/29 02:13:53;;;;;;;9.93;5.38;;;;;;;;;;5014353;28;20360;-62
2023/06/29 02:16:19;;;;;;;11.30;5.15;;;;;;;;;;5013416;28;20113;-63
2023/06/29 02:18:44;;;;;;;9.15;5.15;;;;;;;;;;5014096;28;20455;-62
2023/06/29 02:21:09;;;;;;;7.47;4.75;;;;;;;;;;5013418;28;20022;-63
2023/06/29 02:23:35;;;;;;;10.35;5.07;;;;;;;;;;5014153;28;20026;-62
2023/06/29 02:26:00;;;;;;;8.73;5.00;;;;;;;;;;5013370;28;20042;-64
2023/06/29 02:28:25;;;;;;;8.20;4.88;;;;;;;;;;5013886;28;20029;-62
2023/06/29 02:30:51;;;;;;;10.93;5.60;;;;;;;;;;5013914;28;20443;-62
2023/06/29 02:33:16;;;;;;;11.65;5.72;;;;;;;;;;5013060;28;20033;-62
2023/06/29 02:35:42;;;;;;;9.00;5.20;;;;;;;;;;5013913;28;20037;-62
2023/06/29 02:38:07;;;;;;;9.15;4.93;;;;;;;;;;5012809;28;20038;-62
2023/06/29 02:40:32;;;;;;;9.50;5.55;;;;;;;;;;5013996;28;20047;-62
2023/06/29 02:42:58;;;;;;;11.77;5.43;;;;;;;;;;5013470;28;20216;-62
2023/06/29 02:45:23;;;;;;;10.70;5.32;;;;;;;;;;5013461;28;20033;-63
2023/06/29 02:47:48;;;;;;;10.77;5.65;;;;;;;;;;5013559;28;20060;-61
2023/06/29 02:50:15;;;;;;;10.63;5.40;;;;;;;;;;5013126;28;20033;-64
2023/06/29 02:52:40;;;;;;;10.68;5.22;;;;;;;;;;5013512;28;20128;-62
2023/06/29 02:55:06;;;;;;;8.77;5.07;;;;;;;;;;5013168;28;20466;-62
2023/06/29 02:57:31;;;;;;;12.07;5.55;;;;;;;;;;5013631;28;20108;-62
2023/06/29 02:59:56;;;;;;;10.02;5.55;;;;;;;;;;5013330;28;20041;-62
2023/06/29 03:02:22;;;;;;;11.15;5.82;;;;;;;;;;5012406;28;20117;-62
2023/06/29 03:04:47;;;;;;;10.52;5.82;;;;;;;;;;5013026;28;20088;-62
2023/06/29 03:07:13;;;;;;;10.07;5.40;;;;;;;;;;5012589;28;20088;-61
2023/06/29 03:09:38;;;;;;;8.95;5.40;;;;;;;;;;5011101;28;20056;-62
2023/06/29 03:12:04;;;;;;;8.93;5.40;;;;;;;;;;5012260;28;20084;-62
2023/06/29 03:14:29;;;;;;;8.70;5.45;;;;;;;;;;5012891;28;20037;-63
2023/06/29 03:16:55;;;;;;;9.25;5.32;;;;;;;;;;5012899;28;20044;-63
2023/06/29 03:19:20;;;;;;;9.30;5.40;;;;;;;;;;5012160;28;20109;-62
2023/06/29 03:21:46;;;;;;;9.07;5.70;;;;;;;;;;5012706;28;20026;-61
2023/06/29 03:24:11;;;;;;;10.70;5.53;;;;;;;;;;5012091;28;20029;-63
2023/06/29 03:26:36;;;;;;;9.00;5.03;;;;;;;;;;5012746;28;20030;-62
2023/06/29 03:29:02;;;;;;;10.38;5.35;;;;;;;;;;5012185;28;20083;-63
2023/06/29 03:31:27;;;;;;;11.40;5.70;;;;;;;;;;5011662;28;20034;-62
2023/06/29 03:33:52;;;;;;;9.18;5.40;;;;;;;;;;5012714;28;20148;-62
2023/06/29 03:36:19;;;;;;;9.73;5.50;;;;;;;;;;5011818;28;20037;-62
2023/06/29 03:38:44;;;;;;;9.38;5.40;;;;;;;;;;5012739;28;20041;-62
2023/06/29 03:41:10;;;;;;;9.30;5.80;;;;;;;;;;5011452;28;20025;-62
2023/06/29 03:43:35;;;;;;;9.70;5.75;;;;;;;;;;5012648;28;20462;-61
2023/06/29 03:46:01;;;;;;;9.43;5.32;;;;;;;;;;5012551;28;20076;-62
2023/06/29 03:48:27;;;;;;;8.73;5.70;;;;;;;;;;5011809;28;20521;-62
2023/06/29 03:50:57;;;;;;;9.45;5.43;;;;;;;;;;5012558;28;20030;-61
2023/06/29 03:53:22;;;;;;;9.15;5.63;;;;;;;;;;5011844;28;20041;-62
2023/06/29 03:55:48;;;;;;;9.88;5.65;;;;;;;;;;5012470;28;20030;-61
2023/06/29 03:58:14;;;;;;;10.65;5.80;;;;;;;;;;5011742;28;20044;-63
2023/06/29 04:00:39;;;;;;;10.93;5.68;;;;;;;;;;5012292;28;20153;-62
2023/06/29 04:03:05;;;;;;;8.10;5.47;;;;;;;;;;5012088;28;20032;-64
2023/06/29 04:05:31;;;;;;;9.85;5.72;;;;;;;;;;5012092;28;20026;-62
2023/06/29 04:07:57;;;;;;;11.98;5.68;;;;;;;;;;5012464;28;20029;-62
2023/06/29 04:10:23;;;;;;;11.93;5.90;;;;;;;;;;5011380;28;20045;-63
2023/06/29 04:12:48;;;;;;;9.82;5.65;;;;;;;;;;5012095;28;20040;-63
2023/06/29 04:15:14;;;;;;;14.82;5.97;;;;;;;;;;5011457;28;20564;-62
2023/06/29 04:17:39;;;;;;;8.82;5.75;;;;;;;;;;5012431;28;20037;-61
2023/06/29 04:20:05;;;;;;;10.35;6.00;;;;;;;;;;5012097;28;20471;-62
2023/06/29 04:22:30;;;;;;;11.18;5.80;;;;;;;;;;5012335;28;20060;-62
2023/06/29 04:24:56;;;;;;;10.98;5.78;;;;;;;;;;5012151;28;20062;-62
2023/06/29 04:27:21;;;;;;;9.93;5.72;;;;;;;;;;5011811;28;20471;-62
2023/06/29 04:29:47;;;;;;;10.05;5.82;;;;;;;;;;5011011;28;20109;-62
2023/06/29 04:32:12;;;;;;;9.93;5.68;;;;;;;;;;5011513;28;20374;-62
2023/06/29 04:34:37;;;;;;;11.82;6.13;;;;;;;;;;5012085;28;20034;-62
2023/06/29 04:37:04;;;;;;;10.30;6.38;;;;;;;;;;5012110;28;20467;-62
2023/06/29 04:39:30;;;;;;;8.85;5.90;;;;;;;;;;5011625;28;20041;-62
2023/06/29 04:42:00;;;;;;;12.15;6.05;;;;;;;;;;5011783;28;20128;-62
2023/06/29 04:44:31;;;;;;;10.30;6.10;;;;;;;;;;5011408;28;20109;-62
2023/06/29 04:47:00;;;;;;;10.88;5.82;;;;;;;;;;5012126;28;20033;-62
2023/06/29 04:49:32;;;;;;;12.35;6.15;;;;;;;;;;5011201;28;20040;-62
2023/06/29 04:52:00;;;;;;;11.27;5.75;;;;;;;;;;5011935;28;20044;-62
2023/06/29 04:54:28;;;;;;;11.18;6.13;;;;;;;;;;5011066;28;20026;-62
2023/06/29 04:56:56;;;;;;;10.50;5.93;;;;;;;;;;5012167;28;20038;-62
2023/06/29 04:59:23;;;;;;;10.32;5.90;;;;;;;;;;5011092;28;20038;-62
2023/06/29 05:01:49;;;;;;;10.77;6.13;;;;;;;;;;5011810;28;20026;-62
2023/06/29 05:04:14;;;;;;;11.65;6.57;;;;;;;;;;5011267;28;20033;-63
2023/06/29 05:06:39;;;;;;;10.43;5.70;;;;;;;;;;5011102;28;20030;-62
2023/06/29 05:09:05;;;;;;;14.38;6.43;;;;;;;;;;5012461;28;20052;-62
2023/06/29 05:11:30;;;;;;;13.55;6.35;;;;;;;;;;5011841;28;20034;-62
2023/06/29 05:13:55;;;;;;;11.68;6.10;;;;;;;;;;5012637;28;20454;-62
2023/06/29 05:16:21;;;;;;;11.52;5.82;;;;;;;;;;5013103;28;20517;-62
2023/06/29 05:18:46;;;;;;;11.05;6.07;;;;;;;;;;5013613;28;20030;-62
2023/06/29 05:21:13;;;;;;;12.38;5.80;;;;;;;;;;5012687;28;20072;-62
2023/06/29 05:23:39;;;;;;;11.82;6.10;;;;;;;;;;5012778;28;20397;-62
2023/06/29 05:26:04;;;;;;;10.50;6.07;;;;;;;;;;5011969;28;20034;-62
2023/06/29 05:28:31;;;;;;;10.60;6.00;;;;;;;;;;5011034;28;20268;-62
2023/06/29 05:30:56;;;;;;;10.32;5.93;;;;;;;;;;5011536;28;20351;-62
2023/06/29 05:33:22;;;;;;;11.75;5.85;;;;;;;;;;5014288;28;20037;-62
2023/06/29 05:35:47;;;;;;;12.43;5.68;;;;;;;;;;5015164;28;20034;-62
2023/06/29 05:38:13;;;;;;;8.75;5.35;;;;;;;;;;5014425;28;20421;-63
2023/06/29 05:40:38;;;;;;;12.52;5.57;;;;;;;;;;5014701;28;20030;-62
2023/06/29 05:43:04;;;;;;;13.23;6.30;;;;;;;;;;5015223;28;20054;-61
2023/06/29 05:45:29;;;;;;;9.80;5.50;;;;;;;;;;5014120;28;20379;-62
2023/06/29 05:47:55;;;;;;;11.52;5.70;;;;;;;;;;5015021;28;20032;-62
2023/06/29 05:50:21;;;;;;;10.57;5.68;;;;;;;;;;5014083;28;20390;-62
2023/06/29 05:52:46;;;;;;;9.70;5.38;;;;;;;;;;5014562;28;20038;-62
2023/06/29 05:55:12;;;;;;;13.18;5.95;;;;;;;;;;5014067;28;20114;-62
2023/06/29 05:57:38;;;;;;;10.57;5.63;;;;;;;;;;5013678;28;20473;-62
2023/06/29 06:00:09;;;;;;;10.35;6.03;;;;;;;;;;5015102;28;20430;-62
2023/06/29 06:02:36;;;;;;;16.42;6.10;;;;;;;;;;5014081;28;20030;-62
2023/06/29 06:05:02;;;;;;;12.23;5.78;;;;;;;;;;5014907;28;20034;-62
2023/06/29 06:07:29;;;;;;;10.02;5.60;;;;;;;;;;5012840;28;20042;-62
2023/06/29 06:09:55;;;;;;;11.55;5.32;;;;;;;;;;5014734;28;20030;-62
2023/06/29 06:12:22;;;;;;;10.75;5.40;;;;;;;;;;5013339;28;20455;-62
2023/06/29 06:14:47;;;;;;;9.45;5.32;;;;;;;;;;5014518;28;20109;-62
2023/06/29 06:17:12;;;;;;;10.93;5.40;;;;;;;;;;5013809;28;20108;-62
2023/06/29 06:19:38;;;;;;;13.02;5.70;;;;;;;;;;5014026;28;20108;-62
2023/06/29 06:22:03;;;;;;;13.55;5.85;;;;;;;;;;5013189;28;20159;-62
2023/06/29 06:24:29;;;;;;;11.52;5.60;;;;;;;;;;5013547;28;20537;-62
2023/06/29 06:26:54;;;;;;;10.98;5.60;;;;;;;;;;5014203;28;20061;-62
2023/06/29 06:29:19;;;;;;;12.68;6.00;;;;;;;;;;5013111;28;20033;-62
2023/06/29 06:31:45;;;;;;;13.38;5.68;;;;;;;;;;5013877;28;20080;-62
2023/06/29 06:34:10;;;;;;;11.48;5.82;;;;;;;;;;5014078;28;20462;-61
2023/06/29 06:36:36;;;;;;;11.18;5.35;;;;;;;;;;5012306;28;20046;-62
2023/06/29 06:39:01;;;;;;;11.60;5.72;;;;;;;;;;5014041;28;20398;-61
2023/06/29 06:41:26;;;;;;;13.32;5.18;;;;;;;;;;5012622;28;20100;-61
2023/06/29 06:43:53;;;;;;;10.55;5.68;;;;;;;;;;5012947;28;20156;-62
2023/06/29 06:46:18;;;;;;;9.30;5.72;;;;;;;;;;5012940;28;20026;-62
2023/06/29 06:48:43;;;;;;;12.48;5.75;;;;;;;;;;5013809;28;20157;-62
2023/06/29 06:51:09;;;;;;;9.20;5.32;;;;;;;;;;5013405;28;20034;-61
2023/06/29 06:53:34;;;;;;;10.35;5.97;;;;;;;;;;5012655;28;20411;-62
2023/06/29 06:56:00;;;;;;;12.90;5.82;;;;;;;;;;5013792;28;20034;-62
2023/06/29 06:58:26;;;;;;;12.05;5.80;;;;;;;;;;5012761;28;20037;-62
2023/06/29 07:00:52;;;;;;;12.18;6.10;;;;;;;;;;5013487;28;20026;-62
2023/06/29 07:03:19;;;;;;;11.73;6.15;;;;;;;;;;5012686;28;20083;-62
2023/06/29 07:05:44;;;;;;;14.55;6.55;;;;;;;;;;5013387;28;20030;-62
2023/06/29 07:08:10;;;;;;;14.65;6.40;;;;;;;;;;5013476;28;20417;-61
2023/06/29 07:10:35;;;;;;;14.00;6.43;;;;;;;;;;5012777;28;20672;-61
2023/06/29 07:13:00;;;;;;;10.75;6.00;;;;;;;;;;5013288;28;20109;-61
2023/06/29 07:15:26;;;;;;;11.70;6.47;;;;;;;;;;5012155;28;20057;-62
2023/06/29 07:17:51;;;;;;;11.93;6.35;;;;;;;;;;5012319;28;20521;-62
2023/06/29 07:20:17;;;;;;;14.10;7.45;;;;;;;;;;5012745;28;20061;-62
2023/06/29 07:22:42;;;;;;;14.30;6.75;;;;;;;;;;5012611;28;20496;-62
2023/06/29 07:25:08;;;;;;;11.93;6.72;;;;;;;;;;5012953;28;20030;-61
2023/06/29 07:27:34;;;;;;;11.98;7.47;;;;;;;;;;5012573;28;20080;-62
2023/06/29 07:29:59;;;;;;;13.07;7.60;;;;;;;;;;5014107;28;20034;-62
2023/06/29 07:32:24;;;;;;;13.75;8.07;;;;;;;;;;5012016;28;20088;-62
2023/06/29 07:34:50;;;;;;;13.23;8.10;;;;;;;;;;5012899;28;20057;-62
2023/06/29 07:37:15;;;;;;;14.88;8.05;;;;;;;;;;5012797;28;20034;-62
2023/06/29 07:39:41;;;;;;;13.65;8.02;;;;;;;;;;5012108;28;20055;-62
2023/06/29 07:42:06;;;;;;;14.93;8.05;;;;;;;;;;5012620;28;20235;-62
2023/06/29 07:44:32;;;;;;;14.73;8.20;;;;;;;;;;5012198;28;20041;-62
2023/06/29 07:46:58;;;;;;;15.27;8.70;;;;;;;;;;5011563;28;20045;-62
2023/06/29 09:20:15;;;;;;;16.75;9.07;;;;;;;;;;5164516;23;20098;-62
2023/06/29 09:22:42;;;;;;;18.42;9.32;;;;;;;;;;5035842;28;20041;-62
2023/06/29 09:25:09;;;;;;;15.73;9.05;;;;;;;;;;5033369;28;20025;-63
2023/06/29 09:27:35;;;;;;;17.48;9.35;;;;;;;;;;5034931;28;20042;-62
2023/06/29 09:30:03;;;;;;;19.85;10.25;;;;;;;;;;5034916;28;20034;-62
2023/06/29 09:32:29;;;;;;;19.50;9.73;;;;;;;;;;5034597;28;20041;-62
2023/06/29 09:34:54;;;;;;;17.25;9.93;;;;;;;;;;5034944;28;20041;-62
2023/06/29 09:37:20;;;;;;;18.65;9.73;;;;;;;;;;5033790;28;20037;-62
2023/06/29 09:40:14;;;;;;;16.27;9.40;;;;;;;;;;5034418;28;20428;-62
2023/06/29 09:42:40;;;;;;;16.73;9.55;;;;;;;;;;5034732;28;20029;-62
2023/06/29 09:45:14;;;;;;;18.08;9.43;;;;;;;;;;5033697;28;20032;-62
2023/06/29 09:47:48;;;;;;;18.70;10.20;;;;;;;;;;5034710;28;20040;-62
2023/06/29 09:50:21;;;;;;;20.17;10.35;;;;;;;;;;5033501;28;20466;-62
2023/06/29 09:52:48;;;;;;;17.75;9.50;;;;;;;;;;5034361;28;20033;-62
2023/06/29 09:55:17;;;;;;;15.70;9.05;;;;;;;;;;5033597;28;20052;-62
2023/06/29 09:57:49;;;;;;;20.30;9.10;;;;;;;;;;5034545;28;20382;-62
2023/06/29 10:00:15;;;;;;;17.67;8.93;;;;;;;;;;5033627;28;20076;-62
2023/06/29 10:02:40;;;;;;;13.48;8.32;;;;;;;;;;5034285;28;20065;-62
2023/06/29 10:05:08;;;;;;;20.20;8.70;;;;;;;;;;5033683;28;20026;-63
2023/06/29 10:07:34;;;;;;;18.83;8.63;;;;;;;;;;5033958;28;20530;-62
2023/06/29 10:10:01;;;;;;;15.90;8.23;;;;;;;;;;5034242;28;20028;-62
2023/06/29 10:12:27;;;;;;;14.52;7.90;;;;;;;;;;5033383;28;20360;-62
2023/06/29 10:14:58;;;;;;;14.00;8.43;;;;;;;;;;5032746;28;20030;-62
2023/06/29 10:17:32;;;;;;;14.43;8.25;;;;;;;;;;5032988;28;20044;-62
2023/06/29 10:20:00;;;;;;;17.17;8.82;;;;;;;;;;5034012;28;20049;-62
2023/06/29 10:22:27;;;;;;;15.15;8.32;;;;;;;;;;5032723;28;20112;-62
2023/06/29 10:25:00;;;;;;;16.27;8.18;;;;;;;;;;5033845;28;20030;-62
2023/06/29 10:27:29;;;;;;;14.50;8.43;;;;;;;;;;5033045;28;20259;-62
2023/06/29 10:29:54;;;;;;;15.15;7.93;;;;;;;;;;5033918;28;20030;-62
2023/06/29 10:32:37;;;;;;;15.38;8.38;;;;;;;;;;5033019;28;20079;-61
2023/06/29 10:35:05;;;;;;;15.27;8.20;;;;;;;;;;5033819;28;20022;-62
2023/06/29 10:37:34;;;;;;;17.48;7.80;;;;;;;;;;5032939;28;20029;-62
2023/06/29 10:40:00;;;;;;;15.48;8.40;;;;;;;;;;5034002;28;20389;-62
2023/06/29 10:42:26;;;;;;;15.52;8.35;;;;;;;;;;5033007;28;20033;-62
2023/06/29 10:44:51;;;;;;;13.80;7.60;;;;;;;;;;5033536;28;20033;-62
2023/06/29 10:47:39;;;;;;;14.05;8.00;;;;;;;;;;5032741;28;20025;-62
2023/06/29 10:50:10;;;;;;;15.30;8.10;;;;;;;;;;5033773;28;20029;-62
2023/06/29 10:52:36;;;;;;;13.68;7.78;;;;;;;;;;5033316;28;20105;-62
2023/06/29 10:55:17;;;;;;;18.15;8.25;;;;;;;;;;5033665;28;20040;-62
2023/06/29 10:57:48;;;;;;;15.15;8.40;;;;;;;;;;5033332;28;20030;-62
2023/06/29 11:00:14;;;;;;;;;;;;;;;;;;5033244;28;20038;-62
2023/06/29 11:02:44;;;;;;;18.40;9.00;;;;;;;;;;5033080;28;19909;-62
2023/06/29 11:05:28;;;;;;;15.13;8.83;;;;;;;;;;5032766;28;20031;-63
2023/06/29 11:07:53;;;;;;;15.55;9.02;;;;;;;;;;5033057;28;20602;-62
2023/06/29 11:10:20;;;;;;;15.93;8.57;;;;;;;;;;5032064;28;20033;-62
2023/06/29 11:12:47;;;;;;;15.80;8.75;;;;;;;;;;5032996;28;20025;-62
2023/06/29 11:15:15;;;;;;;15.65;10.98;;;;;;;;;;5032047;28;20037;-62
2023/06/29 11:17:42;;;;;;;18.92;10.68;;;;;;;;;;5032722;28;20025;-62
2023/06/29 11:20:13;;;;;;;19.90;10.43;;;;;;;;;;5032154;28;20067;-62
2023/06/29 11:22:39;;;;;;;17.13;10.32;;;;;;;;;;5032658;28;20036;-62
2023/06/29 11:25:05;;;;;;;20.73;10.30;;;;;;;;;;5032630;28;20033;-62
2023/06/29 11:27:30;;;;;;;15.75;10.50;;;;;;;;;;5030522;28;20173;-62
2023/06/29 11:29:56;;;;;;;16.48;10.45;;;;;;;;;;5032496;28;20359;-62
2023/06/29 11:32:23;;;;;;;14.18;10.07;;;;;;;;;;5031821;28;20062;-62
2023/06/29 11:34:56;;;;;;;18.05;11.02;;;;;;;;;;5032463;28;20029;-62
2023/06/29 11:37:23;;;;;;;20.17;11.20;;;;;;;;;;5031795;28;20170;-62
2023/06/29 11:39:49;;;;;;;16.20;11.13;;;;;;;;;;5032325;28;20026;-62
2023/06/29 11:42:17;;;;;;;18.42;11.75;;;;;;;;;;5031352;28;20496;-62
2023/06/29 11:44:42;;;;;;;17.75;11.32;;;;;;;;;;5032636;28;20029;-62
2023/06/29 11:47:08;;;;;;;16.30;10.77;;;;;;;;;;5032466;28;20029;-62
2023/06/29 11:49:34;;;;;;;18.52;11.82;;;;;;;;;;5032229;28;20036;-63
2023/06/29 11:52:03;;;;;;;18.50;12.25;;;;;;;;;;5032587;28;20029;-62
2023/06/29 11:54:30;;;;;;;18.00;12.02;;;;;;;;;;5031386;28;20462;-65
2023/06/29 11:56:56;;;;;;;17.77;11.95;;;;;;;;;;5031168;28;20355;-62
2023/06/29 11:59:22;;;;;;;16.90;11.35;;;;;;;;;;5031451;28;20033;-62
2023/06/29 12:01:47;;;;;;;18.58;11.25;;;;;;;;;;5032112;28;20040;-62
2023/06/29 12:04:13;;;;;;;18.90;11.20;;;;;;;;;;5030245;28;20037;-64
2023/06/29 12:06:58;;;;;;;24.33;12.02;;;;;;;;;;5031814;28;20107;-62
2023/06/29 12:09:32;;;;;;;20.73;12.02;;;;;;;;;;5031329;28;20028;-62
2023/06/29 12:11:59;;;;;;;18.52;12.02;;;;;;;;;;5032180;28;20030;-63
2023/06/29 12:14:34;;;;;;;20.10;11.55;;;;;;;;;;5031176;28;20065;-63
2023/06/29 12:17:00;;;;;;;20.25;11.93;;;;;;;;;;5032220;28;20068;-62
2023/06/29 12:19:36;;;;;;;22.58;12.43;;;;;;;;;;5031117;28;20080;-62
2023/06/29 12:22:04;;;;;;;17.63;11.90;;;;;;;;;;5032277;28;20116;-63
2023/06/29 12:24:30;;;;;;;19.23;11.82;;;;;;;;;;5031578;28;20056;-63
2023/06/29 12:26:55;;;;;;;25.13;13.18;;;;;;;;;;5031732;28;20458;-62
2023/06/29 12:29:20;;;;;;;49.58;20.52;;;;;;;;;;5030872;28;20447;-63
2023/06/29 12:31:46;;;;;;;42.55;18.88;;;;;;;;;;5032214;28;20075;-62
2023/06/29 12:34:11;;;;;;;43.63;18.75;;;;;;;;;;5031734;28;20532;-63
2023/06/29 12:36:37;;;;;;;69.22;25.92;;;;;;;;;;5031439;28;20073;-62
2023/06/29 12:39:02;;;;;;;61.90;24.95;;;;;;;;;;5032095;28;20033;-63
2023/06/29 12:41:28;;;;;;;19.55;11.68;;;;;;;;;;5031452;28;20080;-62
2023/06/29 12:43:53;;;;;;;26.15;14.35;;;;;;;;;;5035908;28;20026;-62
2023/06/29 12:46:19;;;;;;;26.60;13.13;;;;;;;;;;5035069;28;20087;-62
2023/06/29 12:48:45;;;;;;;19.33;12.35;;;;;;;;;;5035797;28;20600;-62
2023/06/29 12:51:11;;;;;;;20.05;11.45;;;;;;;;;;5035411;28;20033;-62
2023/06/29 12:53:38;;;;;;;15.93;10.77;;;;;;;;;;5034564;28;20828;-61
2023/06/29 12:56:04;;;;;;;17.42;10.88;;;;;;;;;;5034357;28;20036;-61
2023/06/29 12:58:29;;;;;;;18.95;11.60;;;;;;;;;;5035004;28;20025;-62
2023/06/29 13:00:55;;;;;;;18.13;11.48;;;;;;;;;;5035610;28;20056;-62
2023/06/29 13:03:20;;;;;;;17.52;11.38;;;;;;;;;;5034401;28;20064;-62
2023/06/29 13:05:49;;;;;;;21.20;12.80;;;;;;;;;;5035056;28;20029;-62
2023/06/29 13:08:15;;;;;;;16.75;12.15;;;;;;;;;;5034810;28;20385;-62
2023/06/29 13:10:41;;;;;;;19.30;12.75;;;;;;;;;;5035074;28;20036;-62
2023/06/29 13:13:06;;;;;;;18.27;12.68;;;;;;;;;;5035440;28;20382;-62
2023/06/29 13:15:32;;;;;;;19.70;12.90;;;;;;;;;;5034549;28;20112;-62
2023/06/29 13:17:57;;;;;;;19.50;13.15;;;;;;;;;;5035281;28;20095;-61
2023/06/29 13:20:22;;;;;;;20.63;12.68;;;;;;;;;;5034380;28;20046;-62
2023/06/29 13:22:48;;;;;;;18.77;12.93;;;;;;;;;;5035469;28;20033;-62
2023/06/29 13:25:14;;;;;;;21.40;12.73;;;;;;;;;;5034930;28;20120;-62
2023/06/29 13:27:40;;;;;;;18.95;12.45;;;;;;;;;;5032865;28;20038;-62
2023/06/29 13:30:07;;;;;;;17.95;12.32;;;;;;;;;;5035073;28;20033;-61
2023/06/29 13:32:32;;;;;;;17.60;12.60;;;;;;;;;;5034158;28;20113;-62
2023/06/29 13:34:57;;;;;;;17.52;12.00;;;;;;;;;;5034896;28;20116;-62
2023/06/29 13:37:23;;;;;;;18.98;12.35;;;;;;;;;;5034280;28;20037;-62
2023/06/29 13:39:48;;;;;;;19.30;12.38;;;;;;;;;;5034843;28;20037;-62
2023/06/29 13:42:17;;;;;;;20.98;12.48;;;;;;;;;;5034945;28;20029;-61
2023/06/29 13:44:46;;;;;;;23.00;13.02;;;;;;;;;;5034645;28;20033;-62
2023/06/29 13:47:21;;;;;;;21.10;13.48;;;;;;;;;;5034649;28;20029;-62
2023/06/29 13:49:47;;;;;;;26.45;12.88;;;;;;;;;;5034578;28;20040;-62
2023/06/29 13:52:12;;;;;;;20.33;12.82;;;;;;;;;;5034135;28;20029;-62
2023/06/29 13:54:38;;;;;;;21.02;13.05;;;;;;;;;;5033680;28;20649;-62
2023/06/29 13:57:05;;;;;;;22.27;13.60;;;;;;;;;;5033453;28;20120;-62
2023/06/29 13:59:30;;;;;;;22.92;13.23;;;;;;;;;;5032582;28;20450;-62
2023/06/29 14:01:56;;;;;;;19.33;13.02;;;;;;;;;;5034306;28;20035;-61
2023/06/29 14:04:22;;;;;;;20.58;13.65;;;;;;;;;;5033779;28;20071;-63
2023/06/29 14:06:47;;;;;;;18.77;12.45;;;;;;;;;;5034441;28;20520;-62
2023/06/29 14:09:13;;;;;;;21.33;13.75;;;;;;;;;;5034571;28;20025;-62
2023/06/29 14:11:39;;;;;;;25.13;13.43;;;;;;;;;;5033637;28;20077;-62
2023/06/29 14:14:05;;;;;;;21.00;13.02;;;;;;;;;;5034109;28;20148;-62
2023/06/29 14:16:31;;;;;;;24.58;14.00;;;;;;;;;;5033293;28;20095;-62
2023/06/29 14:18:58;;;;;;;21.50;13.70;;;;;;;;;;5034242;28;20022;-62
2023/06/29 14:21:23;;;;;;;24.55;13.90;;;;;;;;;;5033107;28;20041;-62
2023/06/29 14:23:49;;;;;;;21.70;13.98;;;;;;;;;;5034169;28;20075;-62
2023/06/29 14:26:14;;;;;;;22.13;13.43;;;;;;;;;;5033830;28;20111;-62
2023/06/29 14:28:40;;;;;;;22.38;14.63;;;;;;;;;;5033201;28;20033;-62
2023/06/29 14:31:05;;;;;;;22.13;14.52;;;;;;;;;;5033607;28;20044;-62
2023/06/29 14:33:33;;;;;;;25.73;13.98;;;;;;;;;;5031879;28;20033;-62
2023/06/29 14:35:58;;;;;;;21.30;13.85;;;;;;;;;;5033674;28;20064;-62
2023/06/29 14:38:24;;;;;;;20.80;14.40;;;;;;;;;;5032919;28;20029;-62
2023/06/29 14:40:49;;;;;;;20.63;13.90;;;;;;;;;;5033795;28;20424;-62
2023/06/29 14:43:15;;;;;;;26.00;13.82;;;;;;;;;;5033562;28;20033;-62
2023/06/29 14:45:41;;;;;;;21.23;14.43;;;;;;;;;;5031463;28;20058;-62
2023/06/29 14:48:06;;;;;;;20.85;13.77;;;;;;;;;;5033652;28;20025;-61
2023/06/29 14:50:32;;;;;;;20.60;14.00;;;;;;;;;;5033079;28;20462;-62
2023/06/29 14:52:57;;;;;;;25.23;13.38;;;;;;;;;;5032315;28;20032;-62
2023/06/29 14:55:23;;;;;;;23.30;13.75;;;;;;;;;;5032646;28;20031;-63
2023/06/29 14:57:48;;;;;;;22.63;13.63;;;;;;;;;;5033019;28;20033;-62
2023/06/29 15:00:14;;;;;;;19.35;13.40;;;;;;;;;;5033526;28;20026;-61
2023/06/29 15:02:39;;;;;;;21.85;13.20;;;;;;;;;;5032274;28;20591;-61
2023/06/29 15:05:05;;;;;;;18.70;12.45;;;;;;;;;;5032268;28;20035;-61
2023/06/29 15:07:30;;;;;;;20.52;12.40;;;;;;;;;;5032450;28;20422;-61
2023/06/29 15:09:56;;;;;;;21.25;13.45;;;;;;;;;;5033182;28;20489;-61
2023/06/29 15:12:21;;;;;;;22.83;12.48;;;;;;;;;;5033553;28;20039;-62
2023/06/29 15:14:47;;;;;;;19.45;12.68;;;;;;;;;;5032731;28;20030;-62
2023/06/29 15:17:12;;;;;;;18.85;12.43;;;;;;;;;;5032836;28;20040;-61
2023/06/29 15:19:37;;;;;;;16.13;10.98;;;;;;;;;;5031831;28;20111;-61
2023/06/29 15:22:05;;;;;;;19.02;11.70;;;;;;;;;;5032705;28;20029;-61
2023/06/29 15:24:30;;;;;;;17.13;11.38;;;;;;;;;;5031796;28;20493;-61
2023/06/29 15:26:56;;;;;;;20.45;11.30;;;;;;;;;;5032844;28;20152;-61
2023/06/29 15:29:22;;;;;;;15.98;11.40;;;;;;;;;;5032950;28;20055;-61
2023/06/29 15:31:48;;;;;;;14.93;11.00;;;;;;;;;;5036528;28;20029;-61
2023/06/29 15:34:13;;;;;;;14.45;10.55;;;;;;;;;;5035890;28;20038;-61
2023/06/29 15:36:39;;;;;;;16.65;10.68;;;;;;;;;;5030872;28;20037;-61
2023/06/29 15:39:04;;;;;;;19.05;11.10;;;;;;;;;;5033188;28;20033;-62
2023/06/29 15:41:29;;;;;;;16.33;11.18;;;;;;;;;;5032218;28;20072;-61
2023/06/29 15:43:59;;;;;;;17.40;10.85;;;;;;;;;;5032975;28;20432;-62
2023/06/29 15:46:26;;;;;;;17.25;10.82;;;;;;;;;;5031942;28;20037;-63
2023/06/29 15:48:51;;;;;;;17.10;10.35;;;;;;;;;;5032554;28;20398;-62
2023/06/29 15:51:17;;;;;;;18.05;11.00;;;;;;;;;;5032498;28;20044;-61
2023/06/29 15:53:42;;;;;;;15.77;10.93;;;;;;;;;;5031611;28;20363;-62
2023/06/29 15:56:08;;;;;;;16.05;10.90;;;;;;;;;;5032116;28;20053;-62